sensor_id;sensor_type;location;lat;lon;timestamp;temperature;humidity
770;DHT22;368;48.698;9.116;2023-08-24T00:01:22;18.20;99.90
770;DHT22;368;48.698;9.116;2023-08-24T00:03:49;18.10;99.90
770;DHT22;368;48.698;9.116;2023-08-24T00:06:16;18.20;99.90
770;DHT22;368;48.698;9.116;2023-08-24T00:08:43;18.10;99.90
770;DHT22;368;48.698;9.116;2023-08-24T00:11:10;18.20;99.90
770;DHT22;368;48.698;9.116;2023-08-24T00:13:42;18.30;99.90
770;DHT22;368;48.698;9.116;2023-08-24T00:16:14;18.10;99.90
770;DHT22;368;48.698;9.116;2023-08-24T00:18:41;18.20;99.90
770;DHT22;368;48.698;9.116;2023-08-24T00:21:08;18.10;99.90
770;DHT22;368;48.698;9.116;2023-08-24T00:23:35;18.20;99.90
770;DHT22;368;48.698;9.116;2023-08-24T00:26:02;18.20;99.90
770;DHT22;368;48.698;9.116;2023-08-24T00:28:29;18.10;99.90
770;DHT22;368;48.698;9.116;2023-08-24T00:30:57;18.10;99.90
770;DHT22;368;48.698;9.116;2023-08-24T00:33:24;18.20;99.90
770;DHT22;368;48.698;9.116;2023-08-24T00:35:51;18.10;99.90
770;DHT22;368;48.698;9.116;2023-08-24T00:38:18;18.00;99.90
770;DHT22;368;48.698;9.116;2023-08-24T00:40:45;17.90;99.90
770;DHT22;368;48.698;9.116;2023-08-24T00:43:12;17.80;99.90
770;DHT22;368;48.698;9.116;2023-08-24T00:45:39;17.70;99.90
770;DHT22;368;48.698;9.116;2023-08-24T00:48:16;17.70;99.90
770;DHT22;368;48.698;9.116;2023-08-24T00:50:43;17.80;99.90
770;DHT22;368;48.698;9.116;2023-08-24T00:53:10;17.90;99.90
770;DHT22;368;48.698;9.116;2023-08-24T00:55:38;17.90;99.90
770;DHT22;368;48.698;9.116;2023-08-24T00:58:05;17.90;99.90
770;DHT22;368;48.698;9.116;2023-08-24T01:00:33;17.80;99.90
770;DHT22;368;48.698;9.116;2023-08-24T01:03:00;17.70;99.90
770;DHT22;368;48.698;9.116;2023-08-24T01:05:28;17.60;99.90
770;DHT22;368;48.698;9.116;2023-08-24T01:07:55;17.70;99.90
770;DHT22;368;48.698;9.116;2023-08-24T01:10:23;17.80;99.90
770;DHT22;368;48.698;9.116;2023-08-24T01:12:59;17.60;99.90
770;DHT22;368;48.698;9.116;2023-08-24T01:15:32;17.60;99.90
770;DHT22;368;48.698;9.116;2023-08-24T01:18:05;17.70;99.90
770;DHT22;368;48.698;9.116;2023-08-24T01:20:35;17.70;99.90
770;DHT22;368;48.698;9.116;2023-08-24T01:23:07;17.70;99.90
770;DHT22;368;48.698;9.116;2023-08-24T01:25:40;17.70;99.90
770;DHT22;368;48.698;9.116;2023-08-24T01:28:11;17.50;99.90
770;DHT22;368;48.698;9.116;2023-08-24T01:30:39;17.30;99.90
770;DHT22;368;48.698;9.116;2023-08-24T01:33:06;17.20;99.90
770;DHT22;368;48.698;9.116;2023-08-24T01:35:37;17.20;99.90
770;DHT22;368;48.698;9.116;2023-08-24T01:38:04;17.20;99.90
770;DHT22;368;48.698;9.116;2023-08-24T01:40:42;17.30;99.90
770;DHT22;368;48.698;9.116;2023-08-24T01:43:14;17.40;99.90
770;DHT22;368;48.698;9.116;2023-08-24T01:45:42;17.20;99.90
770;DHT22;368;48.698;9.116;2023-08-24T01:48:11;17.20;99.90
770;DHT22;368;48.698;9.116;2023-08-24T01:50:39;17.40;99.90
770;DHT22;368;48.698;9.116;2023-08-24T01:53:07;17.20;99.90
770;DHT22;368;48.698;9.116;2023-08-24T01:55:34;17.10;99.90
770;DHT22;368;48.698;9.116;2023-08-24T01:58:01;17.10;99.90
770;DHT22;368;48.698;9.116;2023-08-24T02:00:28;17.20;99.90
770;DHT22;368;48.698;9.116;2023-08-24T02:02:55;17.20;99.90
770;DHT22;368;48.698;9.116;2023-08-24T02:05:22;17.20;99.90
770;DHT22;368;48.698;9.116;2023-08-24T02:07:53;17.20;99.90
770;DHT22;368;48.698;9.116;2023-08-24T02:10:20;17.10;99.90
770;DHT22;368;48.698;9.116;2023-08-24T02:12:47;17.20;99.90
770;DHT22;368;48.698;9.116;2023-08-24T02:15:14;17.00;99.90
770;DHT22;368;48.698;9.116;2023-08-24T02:17:42;17.00;99.90
770;DHT22;368;48.698;9.116;2023-08-24T02:20:11;17.00;99.90
770;DHT22;368;48.698;9.116;2023-08-24T02:22:38;17.00;99.90
770;DHT22;368;48.698;9.116;2023-08-24T02:25:06;17.00;99.90
770;DHT22;368;48.698;9.116;2023-08-24T02:27:33;17.00;99.90
770;DHT22;368;48.698;9.116;2023-08-24T02:30:00;17.10;99.90
770;DHT22;368;48.698;9.116;2023-08-24T02:32:27;17.10;99.90
770;DHT22;368;48.698;9.116;2023-08-24T02:34:55;17.00;99.90
770;DHT22;368;48.698;9.116;2023-08-24T02:37:22;17.20;99.90
770;DHT22;368;48.698;9.116;2023-08-24T02:39:49;17.20;99.90
770;DHT22;368;48.698;9.116;2023-08-24T02:42:16;17.40;99.90
770;DHT22;368;48.698;9.116;2023-08-24T02:44:43;17.40;99.90
770;DHT22;368;48.698;9.116;2023-08-24T02:47:13;17.30;99.90
770;DHT22;368;48.698;9.116;2023-08-24T02:49:40;17.40;99.90
770;DHT22;368;48.698;9.116;2023-08-24T02:52:09;17.40;99.90
770;DHT22;368;48.698;9.116;2023-08-24T02:54:38;17.40;99.90
770;DHT22;368;48.698;9.116;2023-08-24T02:57:05;17.20;99.90
770;DHT22;368;48.698;9.116;2023-08-24T02:59:32;17.30;99.90
770;DHT22;368;48.698;9.116;2023-08-24T03:01:59;17.30;99.90
770;DHT22;368;48.698;9.116;2023-08-24T03:04:26;17.20;99.90
770;DHT22;368;48.698;9.116;2023-08-24T03:06:53;17.30;99.90
770;DHT22;368;48.698;9.116;2023-08-24T03:09:22;17.40;99.90
770;DHT22;368;48.698;9.116;2023-08-24T03:11:49;17.40;99.90
770;DHT22;368;48.698;9.116;2023-08-24T03:14:15;17.30;99.90
770;DHT22;368;48.698;9.116;2023-08-24T03:16:44;17.20;99.90
770;DHT22;368;48.698;9.116;2023-08-24T03:19:11;17.10;99.90
770;DHT22;368;48.698;9.116;2023-08-24T03:21:40;17.20;99.90
770;DHT22;368;48.698;9.116;2023-08-24T03:24:07;17.40;99.90
770;DHT22;368;48.698;9.116;2023-08-24T03:26:36;17.30;99.90
770;DHT22;368;48.698;9.116;2023-08-24T03:29:03;17.40;99.90
770;DHT22;368;48.698;9.116;2023-08-24T03:31:29;17.40;99.90
770;DHT22;368;48.698;9.116;2023-08-24T03:33:57;17.40;99.90
770;DHT22;368;48.698;9.116;2023-08-24T03:36:24;17.20;99.90
770;DHT22;368;48.698;9.116;2023-08-24T03:38:51;17.10;99.90
770;DHT22;368;48.698;9.116;2023-08-24T03:41:18;17.20;99.90
770;DHT22;368;48.698;9.116;2023-08-24T03:43:46;17.30;99.90
770;DHT22;368;48.698;9.116;2023-08-24T03:46:13;17.40;99.90
770;DHT22;368;48.698;9.116;2023-08-24T03:48:40;17.30;99.90
770;DHT22;368;48.698;9.116;2023-08-24T03:51:07;17.10;99.90
770;DHT22;368;48.698;9.116;2023-08-24T03:53:34;17.10;99.90
770;DHT22;368;48.698;9.116;2023-08-24T03:56:01;17.20;99.90
770;DHT22;368;48.698;9.116;2023-08-24T03:58:28;17.30;99.90
770;DHT22;368;48.698;9.116;2023-08-24T04:00:56;17.60;99.90
770;DHT22;368;48.698;9.116;2023-08-24T04:03:23;17.70;99.90
770;DHT22;368;48.698;9.116;2023-08-24T04:05:50;17.60;99.90
770;DHT22;368;48.698;9.116;2023-08-24T04:08:17;17.60;99.90
770;DHT22;368;48.698;9.116;2023-08-24T04:10:44;17.50;99.90
770;DHT22;368;48.698;9.116;2023-08-24T04:13:11;17.60;99.90
770;DHT22;368;48.698;9.116;2023-08-24T04:15:38;17.50;99.90
770;DHT22;368;48.698;9.116;2023-08-24T04:18:06;17.70;99.90
770;DHT22;368;48.698;9.116;2023-08-24T04:20:36;17.80;99.90
770;DHT22;368;48.698;9.116;2023-08-24T04:23:03;17.90;99.90
770;DHT22;368;48.698;9.116;2023-08-24T04:25:30;17.60;99.90
770;DHT22;368;48.698;9.116;2023-08-24T04:27:57;17.50;99.90
770;DHT22;368;48.698;9.116;2023-08-24T04:30:24;17.40;99.90
770;DHT22;368;48.698;9.116;2023-08-24T04:32:51;17.50;99.90
770;DHT22;368;48.698;9.116;2023-08-24T04:35:20;17.50;99.90
770;DHT22;368;48.698;9.116;2023-08-24T04:37:47;17.50;99.90
770;DHT22;368;48.698;9.116;2023-08-24T04:40:14;17.50;99.90
770;DHT22;368;48.698;9.116;2023-08-24T04:42:41;17.60;99.90
770;DHT22;368;48.698;9.116;2023-08-24T04:45:10;17.70;99.90
770;DHT22;368;48.698;9.116;2023-08-24T04:47:37;17.60;99.90
770;DHT22;368;48.698;9.116;2023-08-24T04:50:05;17.80;99.90
770;DHT22;368;48.698;9.116;2023-08-24T04:52:34;17.90;99.90
770;DHT22;368;48.698;9.116;2023-08-24T04:55:01;18.00;99.90
770;DHT22;368;48.698;9.116;2023-08-24T04:57:29;18.00;99.90
770;DHT22;368;48.698;9.116;2023-08-24T04:59:56;18.00;99.90
770;DHT22;368;48.698;9.116;2023-08-24T05:02:23;18.00;99.90
770;DHT22;368;48.698;9.116;2023-08-24T05:04:50;18.20;99.90
770;DHT22;368;48.698;9.116;2023-08-24T05:07:17;18.30;99.90
770;DHT22;368;48.698;9.116;2023-08-24T05:09:46;18.40;99.90
770;DHT22;368;48.698;9.116;2023-08-24T05:12:13;18.60;99.90
770;DHT22;368;48.698;9.116;2023-08-24T05:14:43;18.60;99.90
770;DHT22;368;48.698;9.116;2023-08-24T05:17:11;18.70;99.90
770;DHT22;368;48.698;9.116;2023-08-24T05:19:40;18.90;99.90
770;DHT22;368;48.698;9.116;2023-08-24T05:22:07;18.90;99.90
770;DHT22;368;48.698;9.116;2023-08-24T05:24:34;19.00;99.90
770;DHT22;368;48.698;9.116;2023-08-24T05:27:03;18.60;99.90
770;DHT22;368;48.698;9.116;2023-08-24T05:29:30;18.50;99.90
770;DHT22;368;48.698;9.116;2023-08-24T05:31:57;18.40;99.90
770;DHT22;368;48.698;9.116;2023-08-24T05:34:24;18.40;99.90
770;DHT22;368;48.698;9.116;2023-08-24T05:36:51;18.60;99.90
770;DHT22;368;48.698;9.116;2023-08-24T05:39:18;18.70;99.90
770;DHT22;368;48.698;9.116;2023-08-24T05:41:45;18.70;99.90
770;DHT22;368;48.698;9.116;2023-08-24T05:44:13;18.90;99.90
770;DHT22;368;48.698;9.116;2023-08-24T05:46:42;19.10;99.90
770;DHT22;368;48.698;9.116;2023-08-24T05:49:11;19.30;99.90
770;DHT22;368;48.698;9.116;2023-08-24T05:51:41;19.30;99.90
770;DHT22;368;48.698;9.116;2023-08-24T05:54:09;19.50;99.90
770;DHT22;368;48.698;9.116;2023-08-24T05:56:39;19.50;99.90
770;DHT22;368;48.698;9.116;2023-08-24T05:59:08;19.70;99.90
770;DHT22;368;48.698;9.116;2023-08-24T06:01:37;20.00;99.90
770;DHT22;368;48.698;9.116;2023-08-24T06:04:08;20.20;99.90
770;DHT22;368;48.698;9.116;2023-08-24T06:06:35;20.30;99.90
770;DHT22;368;48.698;9.116;2023-08-24T06:09:03;20.40;99.90
770;DHT22;368;48.698;9.116;2023-08-24T06:11:32;20.40;99.90
770;DHT22;368;48.698;9.116;2023-08-24T06:13:59;20.40;99.90
770;DHT22;368;48.698;9.116;2023-08-24T06:16:26;20.20;99.90
770;DHT22;368;48.698;9.116;2023-08-24T06:18:54;20.20;99.90
770;DHT22;368;48.698;9.116;2023-08-24T06:21:21;20.10;99.90
770;DHT22;368;48.698;9.116;2023-08-24T06:23:48;20.10;99.90
770;DHT22;368;48.698;9.116;2023-08-24T06:26:15;20.00;99.90
770;DHT22;368;48.698;9.116;2023-08-24T06:28:42;20.10;99.90
770;DHT22;368;48.698;9.116;2023-08-24T06:31:09;20.20;99.90
770;DHT22;368;48.698;9.116;2023-08-24T06:33:36;20.20;99.90
770;DHT22;368;48.698;9.116;2023-08-24T06:36:05;20.30;99.90
770;DHT22;368;48.698;9.116;2023-08-24T06:38:33;20.40;99.90
770;DHT22;368;48.698;9.116;2023-08-24T06:41:00;20.40;99.90
770;DHT22;368;48.698;9.116;2023-08-24T06:43:27;20.40;99.90
770;DHT22;368;48.698;9.116;2023-08-24T06:45:55;20.60;99.90
770;DHT22;368;48.698;9.116;2023-08-24T06:48:27;20.80;99.90
770;DHT22;368;48.698;9.116;2023-08-24T06:50:55;21.00;99.90
770;DHT22;368;48.698;9.116;2023-08-24T06:53:23;21.00;99.90
770;DHT22;368;48.698;9.116;2023-08-24T06:55:54;21.10;99.90
770;DHT22;368;48.698;9.116;2023-08-24T06:58:21;21.20;99.90
770;DHT22;368;48.698;9.116;2023-08-24T07:00:48;21.30;99.90
770;DHT22;368;48.698;9.116;2023-08-24T07:03:16;21.40;99.90
770;DHT22;368;48.698;9.116;2023-08-24T07:05:43;21.50;99.90
770;DHT22;368;48.698;9.116;2023-08-24T07:08:10;22.00;99.90
770;DHT22;368;48.698;9.116;2023-08-24T07:10:38;22.10;99.90
770;DHT22;368;48.698;9.116;2023-08-24T07:13:07;22.30;99.90
770;DHT22;368;48.698;9.116;2023-08-24T07:15:34;22.40;99.90
770;DHT22;368;48.698;9.116;2023-08-24T07:18:02;22.50;99.90
770;DHT22;368;48.698;9.116;2023-08-24T07:20:31;22.80;99.90
770;DHT22;368;48.698;9.116;2023-08-24T07:22:58;22.70;99.90
770;DHT22;368;48.698;9.116;2023-08-24T07:25:25;22.70;99.90
770;DHT22;368;48.698;9.116;2023-08-24T07:27:55;23.00;99.90
770;DHT22;368;48.698;9.116;2023-08-24T07:30:24;23.60;99.90
770;DHT22;368;48.698;9.116;2023-08-24T07:32:51;24.50;99.90
770;DHT22;368;48.698;9.116;2023-08-24T07:35:18;24.80;99.90
770;DHT22;368;48.698;9.116;2023-08-24T07:37:46;24.70;99.90
770;DHT22;368;48.698;9.116;2023-08-24T07:40:13;24.60;99.80
770;DHT22;368;48.698;9.116;2023-08-24T07:42:44;24.60;99.90
770;DHT22;368;48.698;9.116;2023-08-24T07:45:13;25.60;99.30
770;DHT22;368;48.698;9.116;2023-08-24T07:47:40;25.80;97.60
770;DHT22;368;48.698;9.116;2023-08-24T07:50:08;26.20;97.40
770;DHT22;368;48.698;9.116;2023-08-24T07:52:36;26.20;96.80
770;DHT22;368;48.698;9.116;2023-08-24T07:55:03;26.90;95.90
770;DHT22;368;48.698;9.116;2023-08-24T07:57:30;26.90;96.10
770;DHT22;368;48.698;9.116;2023-08-24T07:59:59;27.10;95.30
770;DHT22;368;48.698;9.116;2023-08-24T08:02:27;27.90;95.00
770;DHT22;368;48.698;9.116;2023-08-24T08:04:56;28.90;93.20
770;DHT22;368;48.698;9.116;2023-08-24T08:07:24;29.10;91.50
770;DHT22;368;48.698;9.116;2023-08-24T08:09:51;29.70;91.30
770;DHT22;368;48.698;9.116;2023-08-24T08:12:18;29.00;90.80
770;DHT22;368;48.698;9.116;2023-08-24T08:14:45;29.30;91.00
770;DHT22;368;48.698;9.116;2023-08-24T08:17:11;29.90;90.40
770;DHT22;368;48.698;9.116;2023-08-24T08:19:40;30.40;89.70
770;DHT22;368;48.698;9.116;2023-08-24T08:22:07;30.80;87.10
770;DHT22;368;48.698;9.116;2023-08-24T08:24:34;30.70;86.60
770;DHT22;368;48.698;9.116;2023-08-24T08:27:00;30.00;88.40
770;DHT22;368;48.698;9.116;2023-08-24T08:29:28;30.30;88.20
770;DHT22;368;48.698;9.116;2023-08-24T08:31:55;30.80;86.90
770;DHT22;368;48.698;9.116;2023-08-24T08:34:22;31.70;85.40
770;DHT22;368;48.698;9.116;2023-08-24T08:36:50;30.70;85.50
770;DHT22;368;48.698;9.116;2023-08-24T08:39:17;31.70;84.50
770;DHT22;368;48.698;9.116;2023-08-24T08:41:46;32.70;81.60
770;DHT22;368;48.698;9.116;2023-08-24T08:44:13;33.00;78.00
770;DHT22;368;48.698;9.116;2023-08-24T08:46:42;32.50;80.90
770;DHT22;368;48.698;9.116;2023-08-24T08:49:11;33.40;77.00
770;DHT22;368;48.698;9.116;2023-08-24T08:51:41;32.80;79.50
770;DHT22;368;48.698;9.116;2023-08-24T08:54:09;33.80;77.30
770;DHT22;368;48.698;9.116;2023-08-24T08:56:36;34.60;74.60
770;DHT22;368;48.698;9.116;2023-08-24T08:59:06;33.40;75.10
770;DHT22;368;48.698;9.116;2023-08-24T09:01:33;33.50;74.70
770;DHT22;368;48.698;9.116;2023-08-24T09:04:00;33.40;74.30
770;DHT22;368;48.698;9.116;2023-08-24T09:06:28;32.40;76.40
770;DHT22;368;48.698;9.116;2023-08-24T09:08:55;32.60;76.30
770;DHT22;368;48.698;9.116;2023-08-24T09:11:24;33.80;73.80
770;DHT22;368;48.698;9.116;2023-08-24T09:13:51;32.90;75.00
770;DHT22;368;48.698;9.116;2023-08-24T09:16:18;34.60;72.10
770;DHT22;368;48.698;9.116;2023-08-24T09:18:46;35.20;69.50
770;DHT22;368;48.698;9.116;2023-08-24T09:21:15;36.50;67.00
770;DHT22;368;48.698;9.116;2023-08-24T09:23:44;36.30;65.90
770;DHT22;368;48.698;9.116;2023-08-24T09:26:11;35.50;66.80
770;DHT22;368;48.698;9.116;2023-08-24T09:28:42;34.70;67.70
770;DHT22;368;48.698;9.116;2023-08-24T09:31:11;34.90;68.30
770;DHT22;368;48.698;9.116;2023-08-24T09:33:38;35.20;67.00
770;DHT22;368;48.698;9.116;2023-08-24T09:36:06;35.20;64.90
770;DHT22;368;48.698;9.116;2023-08-24T09:38:33;34.90;67.70
770;DHT22;368;48.698;9.116;2023-08-24T09:41:02;35.60;64.70
770;DHT22;368;48.698;9.116;2023-08-24T09:43:30;34.40;67.80
770;DHT22;368;48.698;9.116;2023-08-24T09:45:59;35.40;65.70
770;DHT22;368;48.698;9.116;2023-08-24T09:48:25;35.70;66.20
770;DHT22;368;48.698;9.116;2023-08-24T09:50:52;35.50;65.10
770;DHT22;368;48.698;9.116;2023-08-24T09:53:21;34.80;65.10
770;DHT22;368;48.698;9.116;2023-08-24T09:55:54;34.70;66.80
770;DHT22;368;48.698;9.116;2023-08-24T09:58:22;34.90;66.60
770;DHT22;368;48.698;9.116;2023-08-24T10:00:50;34.00;68.00
770;DHT22;368;48.698;9.116;2023-08-24T10:03:21;34.20;69.80
770;DHT22;368;48.698;9.116;2023-08-24T10:05:50;34.90;67.10
770;DHT22;368;48.698;9.116;2023-08-24T10:08:21;35.30;65.90
770;DHT22;368;48.698;9.116;2023-08-24T10:10:53;35.30;65.20
770;DHT22;368;48.698;9.116;2023-08-24T10:13:27;35.50;65.20
770;DHT22;368;48.698;9.116;2023-08-24T10:15:56;36.60;64.20
770;DHT22;368;48.698;9.116;2023-08-24T10:18:25;37.20;62.20
770;DHT22;368;48.698;9.116;2023-08-24T10:20:52;36.90;63.40
770;DHT22;368;48.698;9.116;2023-08-24T10:23:20;36.40;62.00
770;DHT22;368;48.698;9.116;2023-08-24T10:25:48;35.20;66.20
770;DHT22;368;48.698;9.116;2023-08-24T10:28:18;36.30;64.80
770;DHT22;368;48.698;9.116;2023-08-24T10:30:47;36.00;63.70
770;DHT22;368;48.698;9.116;2023-08-24T10:33:15;36.20;64.00
770;DHT22;368;48.698;9.116;2023-08-24T10:35:44;37.10;64.40
770;DHT22;368;48.698;9.116;2023-08-24T10:38:23;37.80;62.00
770;DHT22;368;48.698;9.116;2023-08-24T10:40:51;38.70;60.50
770;DHT22;368;48.698;9.116;2023-08-24T10:43:18;38.90;58.90
770;DHT22;368;48.698;9.116;2023-08-24T10:45:58;39.40;58.60
770;DHT22;368;48.698;9.116;2023-08-24T10:48:26;36.70;63.00
770;DHT22;368;48.698;9.116;2023-08-24T10:51:20;37.90;61.80
770;DHT22;368;48.698;9.116;2023-08-24T10:53:51;38.60;59.70
770;DHT22;368;48.698;9.116;2023-08-24T10:56:19;37.00;61.00
770;DHT22;368;48.698;9.116;2023-08-24T10:58:47;35.80;66.30
770;DHT22;368;48.698;9.116;2023-08-24T11:01:17;37.30;63.10
770;DHT22;368;48.698;9.116;2023-08-24T11:03:49;36.30;66.40
770;DHT22;368;48.698;9.116;2023-08-24T11:06:19;37.60;63.40
770;DHT22;368;48.698;9.116;2023-08-24T11:08:47;38.40;61.10
770;DHT22;368;48.698;9.116;2023-08-24T11:11:21;39.80;59.50
770;DHT22;368;48.698;9.116;2023-08-24T11:14:13;39.30;58.10
770;DHT22;368;48.698;9.116;2023-08-24T11:16:42;39.30;58.10
770;DHT22;368;48.698;9.116;2023-08-24T11:19:09;38.70;58.40
770;DHT22;368;48.698;9.116;2023-08-24T11:21:38;37.80;60.10
770;DHT22;368;48.698;9.116;2023-08-24T11:24:05;38.30;60.30
770;DHT22;368;48.698;9.116;2023-08-24T11:26:33;37.70;59.70
770;DHT22;368;48.698;9.116;2023-08-24T11:29:00;37.50;62.60
770;DHT22;368;48.698;9.116;2023-08-24T11:31:30;37.40;62.60
770;DHT22;368;48.698;9.116;2023-08-24T11:33:57;38.20;59.50
770;DHT22;368;48.698;9.116;2023-08-24T11:36:24;38.60;59.20
770;DHT22;368;48.698;9.116;2023-08-24T11:38:55;39.30;59.10
770;DHT22;368;48.698;9.116;2023-08-24T11:41:22;38.40;58.80
770;DHT22;368;48.698;9.116;2023-08-24T11:43:55;39.20;58.90
770;DHT22;368;48.698;9.116;2023-08-24T11:46:24;39.60;58.70
770;DHT22;368;48.698;9.116;2023-08-24T11:48:51;40.30;57.60
770;DHT22;368;48.698;9.116;2023-08-24T11:51:19;39.90;57.30
770;DHT22;368;48.698;9.116;2023-08-24T11:53:46;41.10;56.50
770;DHT22;368;48.698;9.116;2023-08-24T11:56:15;40.80;55.80
770;DHT22;368;48.698;9.116;2023-08-24T11:58:47;40.60;55.60
770;DHT22;368;48.698;9.116;2023-08-24T12:01:15;40.90;55.30
770;DHT22;368;48.698;9.116;2023-08-24T12:03:42;40.20;55.90
770;DHT22;368;48.698;9.116;2023-08-24T12:06:11;38.30;58.00
770;DHT22;368;48.698;9.116;2023-08-24T12:08:39;36.50;62.40
770;DHT22;368;48.698;9.116;2023-08-24T12:11:11;36.30;62.90
770;DHT22;368;48.698;9.116;2023-08-24T12:13:43;38.20;61.70
770;DHT22;368;48.698;9.116;2023-08-24T12:16:12;38.80;59.20
770;DHT22;368;48.698;9.116;2023-08-24T12:18:47;38.20;59.70
770;DHT22;368;48.698;9.116;2023-08-24T12:21:15;37.20;60.80
770;DHT22;368;48.698;9.116;2023-08-24T12:23:41;37.70;61.10
770;DHT22;368;48.698;9.116;2023-08-24T12:26:16;37.90;60.60
770;DHT22;368;48.698;9.116;2023-08-24T12:28:49;38.60;60.10
770;DHT22;368;48.698;9.116;2023-08-24T12:31:17;39.30;59.30
770;DHT22;368;48.698;9.116;2023-08-24T12:33:44;39.30;57.90
770;DHT22;368;48.698;9.116;2023-08-24T12:36:12;41.30;54.50
770;DHT22;368;48.698;9.116;2023-08-24T12:38:39;41.70;54.40
770;DHT22;368;48.698;9.116;2023-08-24T12:41:07;41.70;53.40
770;DHT22;368;48.698;9.116;2023-08-24T12:43:34;41.20;53.80
770;DHT22;368;48.698;9.116;2023-08-24T12:46:02;41.90;52.10
770;DHT22;368;48.698;9.116;2023-08-24T12:48:29;42.10;50.10
770;DHT22;368;48.698;9.116;2023-08-24T12:50:56;42.00;50.90
770;DHT22;368;48.698;9.116;2023-08-24T12:53:23;40.50;52.00
770;DHT22;368;48.698;9.116;2023-08-24T12:55:50;38.80;55.00
770;DHT22;368;48.698;9.116;2023-08-24T12:58:17;39.40;54.00
770;DHT22;368;48.698;9.116;2023-08-24T13:00:47;39.40;54.10
770;DHT22;368;48.698;9.116;2023-08-24T13:03:15;40.50;53.00
770;DHT22;368;48.698;9.116;2023-08-24T13:05:42;41.40;51.30
770;DHT22;368;48.698;9.116;2023-08-24T13:08:09;42.30;50.30
770;DHT22;368;48.698;9.116;2023-08-24T13:10:36;43.20;48.40
770;DHT22;368;48.698;9.116;2023-08-24T13:13:03;42.90;48.90
770;DHT22;368;48.698;9.116;2023-08-24T13:15:30;43.70;47.80
770;DHT22;368;48.698;9.116;2023-08-24T13:17:57;43.40;47.10
770;DHT22;368;48.698;9.116;2023-08-24T13:20:25;43.00;48.10
770;DHT22;368;48.698;9.116;2023-08-24T13:22:52;42.80;48.00
770;DHT22;368;48.698;9.116;2023-08-24T13:25:19;42.90;47.60
770;DHT22;368;48.698;9.116;2023-08-24T13:27:46;41.70;47.90
770;DHT22;368;48.698;9.116;2023-08-24T13:30:13;40.70;50.10
770;DHT22;368;48.698;9.116;2023-08-24T13:32:40;41.60;49.50
770;DHT22;368;48.698;9.116;2023-08-24T13:35:08;40.60;48.20
770;DHT22;368;48.698;9.116;2023-08-24T13:37:36;40.30;48.60
770;DHT22;368;48.698;9.116;2023-08-24T13:40:04;40.30;48.70
770;DHT22;368;48.698;9.116;2023-08-24T13:42:33;41.90;46.20
770;DHT22;368;48.698;9.116;2023-08-24T13:45:00;42.10;44.80
770;DHT22;368;48.698;9.116;2023-08-24T13:47:27;40.10;47.10
770;DHT22;368;48.698;9.116;2023-08-24T13:49:53;38.80;52.00
770;DHT22;368;48.698;9.116;2023-08-24T13:52:20;39.30;49.50
770;DHT22;368;48.698;9.116;2023-08-24T13:54:48;40.90;47.30
770;DHT22;368;48.698;9.116;2023-08-24T13:57:15;42.00;45.10
770;DHT22;368;48.698;9.116;2023-08-24T13:59:43;41.80;45.70
770;DHT22;368;48.698;9.116;2023-08-24T14:02:09;40.80;46.00
770;DHT22;368;48.698;9.116;2023-08-24T14:04:37;39.40;47.70
770;DHT22;368;48.698;9.116;2023-08-24T14:07:04;38.90;49.50
770;DHT22;368;48.698;9.116;2023-08-24T14:09:31;38.20;50.10
770;DHT22;368;48.698;9.116;2023-08-24T14:11:59;37.80;50.20
770;DHT22;368;48.698;9.116;2023-08-24T14:14:26;37.10;50.90
770;DHT22;368;48.698;9.116;2023-08-24T14:16:56;36.20;53.10
770;DHT22;368;48.698;9.116;2023-08-24T14:19:23;36.30;52.70
770;DHT22;368;48.698;9.116;2023-08-24T14:21:51;36.50;53.10
770;DHT22;368;48.698;9.116;2023-08-24T14:24:17;36.80;52.00
770;DHT22;368;48.698;9.116;2023-08-24T14:26:44;36.40;52.80
770;DHT22;368;48.698;9.116;2023-08-24T14:29:13;36.00;54.40
770;DHT22;368;48.698;9.116;2023-08-24T14:31:40;35.50;55.60
770;DHT22;368;48.698;9.116;2023-08-24T14:34:07;35.20;58.70
770;DHT22;368;48.698;9.116;2023-08-24T14:36:34;34.90;56.20
770;DHT22;368;48.698;9.116;2023-08-24T14:39:02;34.70;58.00
770;DHT22;368;48.698;9.116;2023-08-24T14:41:29;34.30;59.00
770;DHT22;368;48.698;9.116;2023-08-24T14:43:56;34.20;60.80
770;DHT22;368;48.698;9.116;2023-08-24T14:46:25;34.10;60.00
770;DHT22;368;48.698;9.116;2023-08-24T14:48:52;33.70;65.70
770;DHT22;368;48.698;9.116;2023-08-24T14:51:18;33.40;62.80
770;DHT22;368;48.698;9.116;2023-08-24T14:53:45;33.40;61.80
770;DHT22;368;48.698;9.116;2023-08-24T14:56:12;33.30;63.50
770;DHT22;368;48.698;9.116;2023-08-24T14:58:39;32.90;63.30
770;DHT22;368;48.698;9.116;2023-08-24T15:01:06;32.70;65.60
770;DHT22;368;48.698;9.116;2023-08-24T15:03:37;32.30;66.40
770;DHT22;368;48.698;9.116;2023-08-24T15:06:05;31.70;70.40
770;DHT22;368;48.698;9.116;2023-08-24T15:08:34;30.70;77.50
770;DHT22;368;48.698;9.116;2023-08-24T15:11:02;30.10;84.80
770;DHT22;368;48.698;9.116;2023-08-24T15:13:29;29.70;90.40
770;DHT22;368;48.698;9.116;2023-08-24T15:15:57;29.10;92.30
770;DHT22;368;48.698;9.116;2023-08-24T15:18:25;28.50;94.20
770;DHT22;368;48.698;9.116;2023-08-24T15:20:53;28.30;95.00
770;DHT22;368;48.698;9.116;2023-08-24T15:23:22;27.90;97.10
770;DHT22;368;48.698;9.116;2023-08-24T15:25:49;27.40;98.70
770;DHT22;368;48.698;9.116;2023-08-24T15:28:16;27.20;99.70
770;DHT22;368;48.698;9.116;2023-08-24T15:30:43;26.80;99.90
770;DHT22;368;48.698;9.116;2023-08-24T15:33:09;26.70;99.90
770;DHT22;368;48.698;9.116;2023-08-24T15:35:36;26.80;99.90
770;DHT22;368;48.698;9.116;2023-08-24T15:38:05;26.70;99.90
770;DHT22;368;48.698;9.116;2023-08-24T15:40:32;26.40;99.90
770;DHT22;368;48.698;9.116;2023-08-24T15:43:00;26.40;99.90
770;DHT22;368;48.698;9.116;2023-08-24T15:45:27;26.30;99.90
770;DHT22;368;48.698;9.116;2023-08-24T15:47:55;26.40;99.90
770;DHT22;368;48.698;9.116;2023-08-24T15:50:23;26.20;99.90
770;DHT22;368;48.698;9.116;2023-08-24T15:52:49;26.00;99.50
770;DHT22;368;48.698;9.116;2023-08-24T15:55:19;26.00;99.60
770;DHT22;368;48.698;9.116;2023-08-24T15:57:46;26.50;98.90
770;DHT22;368;48.698;9.116;2023-08-24T16:00:13;26.50;98.40
770;DHT22;368;48.698;9.116;2023-08-24T16:02:40;26.10;98.90
770;DHT22;368;48.698;9.116;2023-08-24T16:05:08;26.40;98.80
770;DHT22;368;48.698;9.116;2023-08-24T16:07:35;26.50;98.50
770;DHT22;368;48.698;9.116;2023-08-24T16:10:02;26.40;98.70
770;DHT22;368;48.698;9.116;2023-08-24T16:12:32;26.50;98.60
770;DHT22;368;48.698;9.116;2023-08-24T16:14:58;26.40;98.10
770;DHT22;368;48.698;9.116;2023-08-24T16:17:26;26.20;97.90
770;DHT22;368;48.698;9.116;2023-08-24T16:19:53;26.10;98.10
770;DHT22;368;48.698;9.116;2023-08-24T16:22:20;25.80;97.90
770;DHT22;368;48.698;9.116;2023-08-24T16:24:47;25.50;98.50
770;DHT22;368;48.698;9.116;2023-08-24T16:27:14;25.30;98.90
770;DHT22;368;48.698;9.116;2023-08-24T16:29:42;25.10;99.00
770;DHT22;368;48.698;9.116;2023-08-24T16:32:09;24.90;98.50
770;DHT22;368;48.698;9.116;2023-08-24T16:34:36;24.90;98.40
770;DHT22;368;48.698;9.116;2023-08-24T16:37:02;24.70;98.20
770;DHT22;368;48.698;9.116;2023-08-24T16:39:29;24.50;98.20